sensor_id;sensor_type;location;lat;lon;timestamp;temperature;humidity
47514;DHT22;33951;51.988;5.910;2023-04-05T04:01:00;3.20;99.90
47514;DHT22;33951;51.988;5.910;2023-04-05T04:03:26;3.20;99.90
47514;DHT22;33951;51.988;5.910;2023-04-05T04:05:53;3.30;99.90
47514;DHT22;33951;51.988;5.910;2023-04-05T04:08:20;3.20;99.90
47514;DHT22;33951;51.988;5.910;2023-04-05T04:10:49;3.20;99.90
47514;DHT22;33951;51.988;5.910;2023-04-05T04:32:52;3.20;99.90
47514;DHT22;33951;51.988;5.910;2023-04-05T04:49:10;2.90;99.90
47514;DHT22;33951;51.988;5.910;2023-04-05T05:09:17;2.80;99.90
47514;DHT22;33951;51.988;5.910;2023-04-05T05:11:53;2.80;99.90
47514;DHT22;33951;51.988;5.910;2023-04-05T05:14:21;2.80;99.90
47514;DHT22;33951;51.988;5.910;2023-04-05T05:16:46;2.80;99.90
47514;DHT22;33951;51.988;5.910;2023-04-05T05:19:12;2.80;99.90
47514;DHT22;33951;51.988;5.910;2023-04-05T05:21:38;2.80;99.90
47514;DHT22;33951;51.988;5.910;2023-04-05T05:24:06;2.80;99.90
47514;DHT22;33951;51.988;5.910;2023-04-05T05:26:34;2.80;99.90
47514;DHT22;33951;51.988;5.910;2023-04-05T05:29:00;2.80;99.90
47514;DHT22;33951;51.988;5.910;2023-04-05T05:31:26;2.80;99.90
47514;DHT22;33951;51.988;5.910;2023-04-05T05:34:01;2.80;99.90
47514;DHT22;33951;51.988;5.910;2023-04-05T05:36:35;2.80;99.90
47514;DHT22;33951;51.988;5.910;2023-04-05T05:39:04;2.80;99.90
47514;DHT22;33951;51.988;5.910;2023-04-05T05:41:30;2.90;99.90
47514;DHT22;33951;51.988;5.910;2023-04-05T05:43:59;2.90;99.90
47514;DHT22;33951;51.988;5.910;2023-04-05T05:46:25;2.90;99.90
47514;DHT22;33951;51.988;5.910;2023-04-05T05:48:51;2.90;99.90
47514;DHT22;33951;51.988;5.910;2023-04-05T05:51:17;3.00;99.90
47514;DHT22;33951;51.988;5.910;2023-04-05T05:53:43;3.00;99.90
47514;DHT22;33951;51.988;5.910;2023-04-05T05:56:13;2.90;99.90
47514;DHT22;33951;51.988;5.910;2023-04-05T05:58:38;3.00;99.90
47514;DHT22;33951;51.988;5.910;2023-04-05T06:01:08;3.10;99.90
47514;DHT22;33951;51.988;5.910;2023-04-05T06:03:36;3.10;99.90
47514;DHT22;33951;51.988;5.910;2023-04-05T06:06:02;3.20;99.90
47514;DHT22;33951;51.988;5.910;2023-04-05T06:08:35;3.30;99.90
47514;DHT22;33951;51.988;5.910;2023-04-05T06:11:02;3.30;99.90
47514;DHT22;33951;51.988;5.910;2023-04-05T06:13:30;3.30;99.90
47514;DHT22;33951;51.988;5.910;2023-04-05T06:16:01;3.30;99.90
47514;DHT22;33951;51.988;5.910;2023-04-05T06:18:27;3.40;99.90
47514;DHT22;33951;51.988;5.910;2023-04-05T06:20:54;3.20;99.90
47514;DHT22;33951;51.988;5.910;2023-04-05T06:23:24;3.40;99.90
47514;DHT22;33951;51.988;5.910;2023-04-05T06:25:53;3.50;99.90
47514;DHT22;33951;51.988;5.910;2023-04-05T06:28:20;3.60;99.90
47514;DHT22;33951;51.988;5.910;2023-04-05T06:30:46;3.60;99.90
47514;DHT22;33951;51.988;5.910;2023-04-05T06:33:12;3.70;99.90
47514;DHT22;33951;51.988;5.910;2023-04-05T06:35:50;3.70;99.90
47514;DHT22;33951;51.988;5.910;2023-04-05T06:38:26;3.70;99.90
47514;DHT22;33951;51.988;5.910;2023-04-05T06:41:00;3.70;99.90
47514;DHT22;33951;51.988;5.910;2023-04-05T06:43:37;3.80;99.90
47514;DHT22;33951;51.988;5.910;2023-04-05T06:46:03;3.80;99.90
47514;DHT22;33951;51.988;5.910;2023-04-05T06:48:37;3.80;99.90
47514;DHT22;33951;51.988;5.910;2023-04-05T06:51:17;3.90;99.90
47514;DHT22;33951;51.988;5.910;2023-04-05T06:53:43;4.00;99.90
47514;DHT22;33951;51.988;5.910;2023-04-05T06:56:11;4.10;99.90
47514;DHT22;33951;51.988;5.910;2023-04-05T06:58:36;4.10;99.90
47514;DHT22;33951;51.988;5.910;2023-04-05T07:01:03;4.20;99.90
47514;DHT22;33951;51.988;5.910;2023-04-05T07:03:29;4.20;99.90
47514;DHT22;33951;51.988;5.910;2023-04-05T07:06:11;4.30;99.90
47514;DHT22;33951;51.988;5.910;2023-04-05T07:08:37;4.40;99.90
47514;DHT22;33951;51.988;5.910;2023-04-05T07:11:08;4.50;99.90
47514;DHT22;33951;51.988;5.910;2023-04-05T07:13:36;4.40;99.90
47514;DHT22;33951;51.988;5.910;2023-04-05T07:16:07;4.60;99.90
47514;DHT22;33951;51.988;5.910;2023-04-05T07:18:38;4.50;99.90
47514;DHT22;33951;51.988;5.910;2023-04-05T07:21:04;4.50;99.90
47514;DHT22;33951;51.988;5.910;2023-04-05T07:23:30;4.70;99.90
47514;DHT22;33951;51.988;5.910;2023-04-05T07:26:00;4.80;99.90
47514;DHT22;33951;51.988;5.910;2023-04-05T07:28:32;4.80;99.90
47514;DHT22;33951;51.988;5.910;2023-04-05T07:31:08;4.90;99.90
47514;DHT22;33951;51.988;5.910;2023-04-05T07:33:34;4.90;99.90
47514;DHT22;33951;51.988;5.910;2023-04-05T07:36:00;5.10;99.90
47514;DHT22;33951;51.988;5.910;2023-04-05T07:38:26;5.20;99.90
47514;DHT22;33951;51.988;5.910;2023-04-05T07:40:53;5.20;99.90
47514;DHT22;33951;51.988;5.910;2023-04-05T07:43:19;5.40;99.90
47514;DHT22;33951;51.988;5.910;2023-04-05T07:45:44;5.40;99.90
47514;DHT22;33951;51.988;5.910;2023-04-05T07:48:10;5.50;99.90
47514;DHT22;33951;51.988;5.910;2023-04-05T07:50:41;5.70;99.90
47514;DHT22;33951;51.988;5.910;2023-04-05T07:53:13;5.70;99.90
47514;DHT22;33951;51.988;5.910;2023-04-05T07:55:44;5.80;99.90
47514;DHT22;33951;51.988;5.910;2023-04-05T07:58:16;5.70;99.90
47514;DHT22;33951;51.988;5.910;2023-04-05T08:00:47;5.80;99.90
47514;DHT22;33951;51.988;5.910;2023-04-05T08:03:13;5.90;99.90
47514;DHT22;33951;51.988;5.910;2023-04-05T08:08:26;6.10;99.90
47514;DHT22;33951;51.988;5.910;2023-04-05T08:10:54;6.10;99.90
47514;DHT22;33951;51.988;5.910;2023-04-05T08:13:25;6.20;99.90
47514;DHT22;33951;51.988;5.910;2023-04-05T08:16:06;6.40;99.90
47514;DHT22;33951;51.988;5.910;2023-04-05T08:18:40;6.70;99.90
47514;DHT22;33951;51.988;5.910;2023-04-05T08:21:09;6.80;99.90
47514;DHT22;33951;51.988;5.910;2023-04-05T08:23:35;6.80;99.90
47514;DHT22;33951;51.988;5.910;2023-04-05T08:26:12;6.80;99.90
47514;DHT22;33951;51.988;5.910;2023-04-05T08:28:48;6.90;99.90
47514;DHT22;33951;51.988;5.910;2023-04-05T08:31:30;7.00;99.90
47514;DHT22;33951;51.988;5.910;2023-04-05T08:34:12;7.10;99.90
47514;DHT22;33951;51.988;5.910;2023-04-05T08:40:03;7.40;99.90
47514;DHT22;33951;51.988;5.910;2023-04-05T08:42:45;7.50;99.90
47514;DHT22;33951;51.988;5.910;2023-04-05T08:45:45;7.50;99.90
47514;DHT22;33951;51.988;5.910;2023-04-05T08:58:14;8.00;99.90
47514;DHT22;33951;51.988;5.910;2023-04-05T09:04:13;8.30;99.90
47514;DHT22;33951;51.988;5.910;2023-04-05T09:07:21;8.40;99.90
47514;DHT22;33951;51.988;5.910;2023-04-05T09:10:21;8.50;99.90
47514;DHT22;33951;51.988;5.910;2023-04-05T09:13:20;8.70;99.40
47514;DHT22;33951;51.988;5.910;2023-04-05T09:22:57;8.70;98.50
47514;DHT22;33951;51.988;5.910;2023-04-05T09:25:38;8.80;98.60
47514;DHT22;33951;51.988;5.910;2023-04-05T09:28:07;8.90;98.00
47514;DHT22;33951;51.988;5.910;2023-04-05T09:30:45;9.10;98.00
47514;DHT22;33951;51.988;5.910;2023-04-05T09:33:31;9.20;97.70
47514;DHT22;33951;51.988;5.910;2023-04-05T09:39:14;9.30;98.50
47514;DHT22;33951;51.988;5.910;2023-04-05T09:45:11;9.60;98.00
47514;DHT22;33951;51.988;5.910;2023-04-05T09:47:40;9.60;96.60
47514;DHT22;33951;51.988;5.910;2023-04-05T09:50:24;9.60;96.10
47514;DHT22;33951;51.988;5.910;2023-04-05T09:53:17;9.60;96.30
47514;DHT22;33951;51.988;5.910;2023-04-05T09:56:08;9.70;97.50
47514;DHT22;33951;51.988;5.910;2023-04-05T10:01:33;9.90;96.40
47514;DHT22;33951;51.988;5.910;2023-04-05T10:04:08;10.10;95.60
47514;DHT22;33951;51.988;5.910;2023-04-05T10:06:50;10.20;94.90
47514;DHT22;33951;51.988;5.910;2023-04-05T10:09:48;10.10;94.10
47514;DHT22;33951;51.988;5.910;2023-04-05T10:12:23;10.00;94.50
47514;DHT22;33951;51.988;5.910;2023-04-05T10:14:56;10.00;95.20
47514;DHT22;33951;51.988;5.910;2023-04-05T10:17:37;10.20;95.30
47514;DHT22;33951;51.988;5.910;2023-04-05T10:20:20;10.60;95.10
47514;DHT22;33951;51.988;5.910;2023-04-05T10:25:34;11.20;93.90
47514;DHT22;33951;51.988;5.910;2023-04-05T10:28:36;11.40;93.90
47514;DHT22;33951;51.988;5.910;2023-04-05T10:31:24;11.70;93.60
47514;DHT22;33951;51.988;5.910;2023-04-05T10:34:20;12.00;93.40
47514;DHT22;33951;51.988;5.910;2023-04-05T10:36:51;12.30;91.90
47514;DHT22;33951;51.988;5.910;2023-04-05T10:39:29;12.30;92.60
47514;DHT22;33951;51.988;5.910;2023-04-05T10:42:40;12.60;92.50
47514;DHT22;33951;51.988;5.910;2023-04-05T10:45:12;12.90;92.30
47514;DHT22;33951;51.988;5.910;2023-04-05T10:56:56;13.60;91.10
47514;DHT22;33951;51.988;5.910;2023-04-05T11:02:43;13.80;90.10
47514;DHT22;33951;51.988;5.910;2023-04-05T11:05:48;13.80;88.80
47514;DHT22;33951;51.988;5.910;2023-04-05T11:08:42;13.70;88.90
47514;DHT22;33951;51.988;5.910;2023-04-05T11:11:30;13.90;88.90
47514;DHT22;33951;51.988;5.910;2023-04-05T11:14:34;14.20;90.40
47514;DHT22;33951;51.988;5.910;2023-04-05T11:17:39;14.60;91.20
47514;DHT22;33951;51.988;5.910;2023-04-05T11:23:11;15.20;89.00
47514;DHT22;33951;51.988;5.910;2023-04-05T11:29:00;15.60;86.80
47514;DHT22;33951;51.988;5.910;2023-04-05T11:44:43;16.20;84.80
47514;DHT22;33951;51.988;5.910;2023-04-05T11:47:17;16.40;81.20
47514;DHT22;33951;51.988;5.910;2023-04-05T11:49:49;16.30;80.30
47514;DHT22;33951;51.988;5.910;2023-04-05T11:55:36;16.50;80.80
47514;DHT22;33951;51.988;5.910;2023-04-05T11:58:28;16.70;81.70
47514;DHT22;33951;51.988;5.910;2023-04-05T12:01:17;16.40;78.90
47514;DHT22;33951;51.988;5.910;2023-04-05T12:03:43;16.00;78.10
47514;DHT22;33951;51.988;5.910;2023-04-05T12:06:43;15.90;80.10
47514;DHT22;33951;51.988;5.910;2023-04-05T12:12:24;16.00;80.50
47514;DHT22;33951;51.988;5.910;2023-04-05T12:18:32;16.30;82.40
47514;DHT22;33951;51.988;5.910;2023-04-05T12:21:03;16.50;82.10
47514;DHT22;33951;51.988;5.910;2023-04-05T12:23:32;16.70;80.30
47514;DHT22;33951;51.988;5.910;2023-04-05T12:26:06;16.70;78.50
47514;DHT22;33951;51.988;5.910;2023-04-05T12:29:03;16.60;79.40
47514;DHT22;33951;51.988;5.910;2023-04-05T12:32:00;16.20;78.50
47514;DHT22;33951;51.988;5.910;2023-04-05T12:34:31;15.90;83.00
47514;DHT22;33951;51.988;5.910;2023-04-05T12:36:59;16.20;81.50
47514;DHT22;33951;51.988;5.910;2023-04-05T12:39:28;16.60;80.70
47514;DHT22;33951;51.988;5.910;2023-04-05T12:42:00;16.90;78.70
47514;DHT22;33951;51.988;5.910;2023-04-05T12:47:05;16.80;77.70
47514;DHT22;33951;51.988;5.910;2023-04-05T12:49:38;16.90;78.30
47514;DHT22;33951;51.988;5.910;2023-04-05T12:52:10;16.90;78.30
47514;DHT22;33951;51.988;5.910;2023-04-05T12:54:41;17.00;76.90
47514;DHT22;33951;51.988;5.910;2023-04-05T12:57:32;17.30;77.70
47514;DHT22;33951;51.988;5.910;2023-04-05T13:00:03;17.40;78.40
47514;DHT22;33951;51.988;5.910;2023-04-05T13:02:47;17.50;78.50
47514;DHT22;33951;51.988;5.910;2023-04-05T13:05:20;17.60;78.00
47514;DHT22;33951;51.988;5.910;2023-04-05T13:08:16;17.70;79.60
47514;DHT22;33951;51.988;5.910;2023-04-05T13:10:48;18.00;76.50
47514;DHT22;33951;51.988;5.910;2023-04-05T13:13:20;18.20;76.80
47514;DHT22;33951;51.988;5.910;2023-04-05T13:15:52;18.30;76.20
47514;DHT22;33951;51.988;5.910;2023-04-05T13:18:20;18.20;75.80
47514;DHT22;33951;51.988;5.910;2023-04-05T13:21:06;18.10;75.50
47514;DHT22;33951;51.988;5.910;2023-04-05T13:23:39;18.00;75.90
47514;DHT22;33951;51.988;5.910;2023-04-05T13:26:06;17.90;76.00
47514;DHT22;33951;51.988;5.910;2023-04-05T13:28:42;18.00;74.60
47514;DHT22;33951;51.988;5.910;2023-04-05T13:31:14;18.00;73.60
47514;DHT22;33951;51.988;5.910;2023-04-05T13:33:47;17.90;74.40
47514;DHT22;33951;51.988;5.910;2023-04-05T13:36:16;17.60;73.90
47514;DHT22;33951;51.988;5.910;2023-04-05T13:38:56;17.60;76.20
47514;DHT22;33951;51.988;5.910;2023-04-05T13:41:34;17.60;77.20
47514;DHT22;33951;51.988;5.910;2023-04-05T13:44:07;17.80;78.80
47514;DHT22;33951;51.988;5.910;2023-04-05T13:46:35;17.90;78.50
47514;DHT22;33951;51.988;5.910;2023-04-05T13:49:13;18.20;76.10
47514;DHT22;33951;51.988;5.910;2023-04-05T13:52:02;18.30;76.30
47514;DHT22;33951;51.988;5.910;2023-04-05T13:54:42;18.30;75.00
47514;DHT22;33951;51.988;5.910;2023-04-05T13:57:08;17.50;74.80
47514;DHT22;33951;51.988;5.910;2023-04-05T13:59:45;17.00;75.50
47514;DHT22;33951;51.988;5.910;2023-04-05T14:02:25;16.90;76.20
47514;DHT22;33951;51.988;5.910;2023-04-05T14:05:22;17.20;77.30
47514;DHT22;33951;51.988;5.910;2023-04-05T14:08:13;17.80;76.80
47514;DHT22;33951;51.988;5.910;2023-04-05T14:10:49;17.90;75.40
47514;DHT22;33951;51.988;5.910;2023-04-05T14:13:18;17.70;74.20
47514;DHT22;33951;51.988;5.910;2023-04-05T14:15:51;17.50;75.80
47514;DHT22;33951;51.988;5.910;2023-04-05T14:18:22;17.80;76.30
47514;DHT22;33951;51.988;5.910;2023-04-05T14:20:53;17.90;75.50
47514;DHT22;33951;51.988;5.910;2023-04-05T14:23:31;17.80;74.80
47514;DHT22;33951;51.988;5.910;2023-04-05T14:26:08;17.40;74.20
47514;DHT22;33951;51.988;5.910;2023-04-05T14:28:58;17.50;78.50
47514;DHT22;33951;51.988;5.910;2023-04-05T14:31:31;17.80;76.90
47514;DHT22;33951;51.988;5.910;2023-04-05T14:34:02;18.00;74.10
47514;DHT22;33951;51.988;5.910;2023-04-05T14:36:38;17.90;74.80
47514;DHT22;33951;51.988;5.910;2023-04-05T14:39:06;18.10;74.40
47514;DHT22;33951;51.988;5.910;2023-04-05T14:41:37;18.30;75.20
47514;DHT22;33951;51.988;5.910;2023-04-05T14:44:06;18.60;75.60
47514;DHT22;33951;51.988;5.910;2023-04-05T14:46:41;18.70;74.50
47514;DHT22;33951;51.988;5.910;2023-04-05T14:49:18;18.60;72.90
47514;DHT22;33951;51.988;5.910;2023-04-05T14:51:51;18.00;73.60
47514;DHT22;33951;51.988;5.910;2023-04-05T14:54:31;17.80;73.90
47514;DHT22;33951;51.988;5.910;2023-04-05T14:57:02;17.90;74.90
47514;DHT22;33951;51.988;5.910;2023-04-05T14:59:59;17.90;75.20
47514;DHT22;33951;51.988;5.910;2023-04-05T15:02:34;17.90;73.70
47514;DHT22;33951;51.988;5.910;2023-04-05T15:05:03;17.80;74.00
47514;DHT22;33951;51.988;5.910;2023-04-05T15:07:46;17.70;75.60
47514;DHT22;33951;51.988;5.910;2023-04-05T15:10:21;17.70;75.40
47514;DHT22;33951;51.988;5.910;2023-04-05T15:12:59;17.70;75.60
47514;DHT22;33951;51.988;5.910;2023-04-05T15:15:30;17.60;75.00
47514;DHT22;33951;51.988;5.910;2023-04-05T15:18:02;17.60;74.90
47514;DHT22;33951;51.988;5.910;2023-04-05T15:20:37;17.30;74.70
47514;DHT22;33951;51.988;5.910;2023-04-05T15:23:07;17.40;75.70
47514;DHT22;33951;51.988;5.910;2023-04-05T15:25:49;17.40;74.70
47514;DHT22;33951;51.988;5.910;2023-04-05T15:28:31;17.40;75.40
47514;DHT22;33951;51.988;5.910;2023-04-05T15:31:05;17.40;77.00
47514;DHT22;33951;51.988;5.910;2023-04-05T15:33:53;17.40;75.90
47514;DHT22;33951;51.988;5.910;2023-04-05T15:36:34;17.40;75.90
47514;DHT22;33951;51.988;5.910;2023-04-05T15:39:34;17.50;77.00
47514;DHT22;33951;51.988;5.910;2023-04-05T15:42:37;17.60;76.50
47514;DHT22;33951;51.988;5.910;2023-04-05T15:51:51;17.00;76.60
47514;DHT22;33951;51.988;5.910;2023-04-05T15:54:39;17.00;76.80
47514;DHT22;33951;51.988;5.910;2023-04-05T15:57:15;16.90;76.10
47514;DHT22;33951;51.988;5.910;2023-04-05T15:59:48;16.90;75.80
47514;DHT22;33951;51.988;5.910;2023-04-05T16:02:19;16.80;76.10
47514;DHT22;33951;51.988;5.910;2023-04-05T16:05:01;16.80;76.90
47514;DHT22;33951;51.988;5.910;2023-04-05T16:07:47;16.90;76.50
47514;DHT22;33951;51.988;5.910;2023-04-05T16:10:24;16.70;76.50
47514;DHT22;33951;51.988;5.910;2023-04-05T16:12:53;16.70;76.50
47514;DHT22;33951;51.988;5.910;2023-04-05T16:15:24;16.70;77.10
47514;DHT22;33951;51.988;5.910;2023-04-05T16:17:50;16.70;76.50
47514;DHT22;33951;51.988;5.910;2023-04-05T16:20:33;16.70;76.90
47514;DHT22;33951;51.988;5.910;2023-04-05T16:23:23;16.80;76.10
47514;DHT22;33951;51.988;5.910;2023-04-05T16:25:49;16.50;76.70
47514;DHT22;33951;51.988;5.910;2023-04-05T16:28:27;16.40;76.30
47514;DHT22;33951;51.988;5.910;2023-04-05T16:30:55;16.50;76.10
47514;DHT22;33951;51.988;5.910;2023-04-05T16:33:25;16.50;76.60
47514;DHT22;33951;51.988;5.910;2023-04-05T16:36:03;16.60;76.70
47514;DHT22;33951;51.988;5.910;2023-04-05T16:38:58;16.90;76.40
47514;DHT22;33951;51.988;5.910;2023-04-05T16:41:37;16.80;75.40
47514;DHT22;33951;51.988;5.910;2023-04-05T16:44:11;16.80;75.40
47514;DHT22;33951;51.988;5.910;2023-04-05T16:46:58;16.80;74.90
47514;DHT22;33951;51.988;5.910;2023-04-05T16:49:28;16.70;75.40
47514;DHT22;33951;51.988;5.910;2023-04-05T16:52:06;16.60;75.00
47514;DHT22;33951;51.988;5.910;2023-04-05T16:54:51;16.60;75.80
47514;DHT22;33951;51.988;5.910;2023-04-05T16:57:25;16.60;75.20
47514;DHT22;33951;51.988;5.910;2023-04-05T16:59:53;16.40;75.10
47514;DHT22;33951;51.988;5.910;2023-04-05T17:02:27;16.20;75.70
47514;DHT22;33951;51.988;5.910;2023-04-05T17:05:01;15.90;75.10
47514;DHT22;33951;51.988;5.910;2023-04-05T17:07:47;15.70;76.60
47514;DHT22;33951;51.988;5.910;2023-04-05T17:10:31;15.70;76.40
47514;DHT22;33951;51.988;5.910;2023-04-05T17:13:03;15.60;76.80
47514;DHT22;33951;51.988;5.910;2023-04-05T17:15:34;15.60;77.20
47514;DHT22;33951;51.988;5.910;2023-04-05T17:18:10;15.40;77.20
47514;DHT22;33951;51.988;5.910;2023-04-05T17:21:14;15.40;77.10
47514;DHT22;33951;51.988;5.910;2023-04-05T17:24:10;15.30;77.50
47514;DHT22;33951;51.988;5.910;2023-04-05T17:27:05;15.00;77.90
47514;DHT22;33951;51.988;5.910;2023-04-05T17:29:37;14.90;78.00
47514;DHT22;33951;51.988;5.910;2023-04-05T17:32:29;14.90;78.40
47514;DHT22;33951;51.988;5.910;2023-04-05T17:38:48;14.60;79.00
47514;DHT22;33951;51.988;5.910;2023-04-05T17:41:26;14.30;78.90
47514;DHT22;33951;51.988;5.910;2023-04-05T17:43:52;14.20;79.40
47514;DHT22;33951;51.988;5.910;2023-04-05T17:46:18;14.20;79.20
47514;DHT22;33951;51.988;5.910;2023-04-05T17:48:43;13.90;79.40
47514;DHT22;33951;51.988;5.910;2023-04-05T17:51:29;13.80;78.80
47514;DHT22;33951;51.988;5.910;2023-04-05T17:54:02;13.60;79.00
47514;DHT22;33951;51.988;5.910;2023-04-05T17:56:33;13.50;79.70
47514;DHT22;33951;51.988;5.910;2023-04-05T17:58:59;13.40;80.60
47514;DHT22;33951;51.988;5.910;2023-04-05T18:01:28;13.30;80.00
47514;DHT22;33951;51.988;5.910;2023-04-05T18:03:53;13.20;80.30
47514;DHT22;33951;51.988;5.910;2023-04-05T18:06:27;13.00;79.90
47514;DHT22;33951;51.988;5.910;2023-04-05T18:08:59;12.80;80.20
47514;DHT22;33951;51.988;5.910;2023-04-05T18:11:34;12.60;80.30
47514;DHT22;33951;51.988;5.910;2023-04-05T18:14:01;12.60;80.70
47514;DHT22;33951;51.988;5.910;2023-04-05T18:16:45;12.50;81.00
47514;DHT22;33951;51.988;5.910;2023-04-05T18:19:13;12.40;80.80
47514;DHT22;33951;51.988;5.910;2023-04-05T18:21:38;12.20;81.20
47514;DHT22;33951;51.988;5.910;2023-04-05T18:24:04;12.20;81.20
47514;DHT22;33951;51.988;5.910;2023-04-05T18:26:32;12.00;81.30
47514;DHT22;33951;51.988;5.910;2023-04-05T18:29:09;11.90;81.60
47514;DHT22;33951;51.988;5.910;2023-04-05T18:31:35;11.80;81.60
47514;DHT22;33951;51.988;5.910;2023-04-05T18:34:05;11.70;82.00
47514;DHT22;33951;51.988;5.910;2023-04-05T18:36:48;11.60;82.40
47514;DHT22;33951;51.988;5.910;2023-04-05T18:39:13;11.50;82.90
47514;DHT22;33951;51.988;5.910;2023-04-05T18:41:39;11.40;83.30
47514;DHT22;33951;51.988;5.910;2023-04-05T18:44:08;11.30;83.60
47514;DHT22;33951;51.988;5.910;2023-04-05T18:46:33;11.20;83.90
47514;DHT22;33951;51.988;5.910;2023-04-05T18:48:59;11.10;84.30
47514;DHT22;33951;51.988;5.910;2023-04-05T18:51:25;11.00;84.00
47514;DHT22;33951;51.988;5.910;2023-04-05T18:53:54;10.90;84.30
47514;DHT22;33951;51.988;5.910;2023-04-05T18:56:20;10.80;84.90
47514;DHT22;33951;51.988;5.910;2023-04-05T18:58:46;10.70;85.10
47514;DHT22;33951;51.988;5.910;2023-04-05T19:01:16;10.60;85.30
47514;DHT22;33951;51.988;5.910;2023-04-05T19:03:46;10.50;85.50
47514;DHT22;33951;51.988;5.910;2023-04-05T19:06:17;10.50;85.80
47514;DHT22;33951;51.988;5.910;2023-04-05T19:08:43;10.40;85.90
47514;DHT22;33951;51.988;5.910;2023-04-05T19:11:12;10.30;86.50
47514;DHT22;33951;51.988;5.910;2023-04-05T19:13:39;10.20;86.70
47514;DHT22;33951;51.988;5.910;2023-04-05T19:16:05;10.20;87.90
47514;DHT22;33951;51.988;5.910;2023-04-05T19:18:31;10.10;88.10
47514;DHT22;33951;51.988;5.910;2023-04-05T19:20:59;10.10;88.50
47514;DHT22;33951;51.988;5.910;2023-04-05T19:23:26;10.00;89.30
47514;DHT22;33951;51.988;5.910;2023-04-05T19:25:56;9.90;90.10
47514;DHT22;33951;51.988;5.910;2023-04-05T19:28:25;9.80;90.40
47514;DHT22;33951;51.988;5.910;2023-04-05T19:30:54;9.80;90.80
47514;DHT22;33951;51.988;5.910;2023-04-05T19:33:20;9.70;90.60
47514;DHT22;33951;51.988;5.910;2023-04-05T19:35:46;9.60;90.90
47514;DHT22;33951;51.988;5.910;2023-04-05T19:38:12;9.50;91.10
47514;DHT22;33951;51.988;5.910;2023-04-05T19:40:37;9.50;91.40
47514;DHT22;33951;51.988;5.910;2023-04-05T19:43:03;9.40;91.40
47514;DHT22;33951;51.988;5.910;2023-04-05T19:45:30;9.30;91.50
47514;DHT22;33951;51.988;5.910;2023-04-05T19:47:58;9.30;91.70
47514;DHT22;33951;51.988;5.910;2023-04-05T19:50:48;9.20;92.00
47514;DHT22;33951;51.988;5.910;2023-04-05T19:53:42;9.10;92.10
47514;DHT22;33951;51.988;5.910;2023-04-05T19:56:50;9.00;92.10
47514;DHT22;33951;51.988;5.910;2023-04-05T19:59:06;8.90;92.30
47514;DHT22;33951;51.988;5.910;2023-04-05T20:01:39;8.90;92.70
47514;DHT22;33951;51.988;5.910;2023-04-05T20:04:13;8.80;92.80
47514;DHT22;33951;51.988;5.910;2023-04-05T20:06:43;8.90;92.80
47514;DHT22;33951;51.988;5.910;2023-04-05T20:09:23;8.80;93.00
47514;DHT22;33951;51.988;5.910;2023-04-05T20:11:53;8.70;93.00
47514;DHT22;33951;51.988;5.910;2023-04-05T20:14:27;8.60;93.00
47514;DHT22;33951;51.988;5.910;2023-04-05T20:16:56;8.60;93.10
47514;DHT22;33951;51.988;5.910;2023-04-05T20:19:30;8.50;93.10
47514;DHT22;33951;51.988;5.910;2023-04-05T20:21:57;8.50;93.00
47514;DHT22;33951;51.988;5.910;2023-04-05T20:24:23;8.40;93.20
47514;DHT22;33951;51.988;5.910;2023-04-05T20:26:48;8.40;93.30
47514;DHT22;33951;51.988;5.910;2023-04-05T20:29:28;8.30;93.40
47514;DHT22;33951;51.988;5.910;2023-04-05T20:31:56;8.20;93.50
47514;DHT22;33951;51.988;5.910;2023-04-05T20:34:30;8.20;93.60
47514;DHT22;33951;51.988;5.910;2023-04-05T20:37:04;8.20;93.60
47514;DHT22;33951;51.988;5.910;2023-04-05T20:39:32;8.10;93.70
47514;DHT22;33951;51.988;5.910;2023-04-05T20:42:03;8.10;93.60
47514;DHT22;33951;51.988;5.910;2023-04-05T20:44:29;8.00;93.80
47514;DHT22;33951;51.988;5.910;2023-04-05T20:46:58;8.00;94.00
47514;DHT22;33951;51.988;5.910;2023-04-05T20:49:25;7.90;94.20
47514;DHT22;33951;51.988;5.910;2023-04-05T20:51:56;7.90;94.40
47514;DHT22;33951;51.988;5.910;2023-04-05T20:54:31;7.80;94.70
47514;DHT22;33951;51.988;5.910;2023-04-05T20:57:01;7.80;94.90
47514;DHT22;33951;51.988;5.910;2023-04-05T20:59:26;7.90;94.80
47514;DHT22;33951;51.988;5.910;2023-04-05T21:01:58;7.70;94.80
47514;DHT22;33951;51.988;5.910;2023-04-05T21:04:24;7.70;95.00
47514;DHT22;33951;51.988;5.910;2023-04-05T21:06:50;7.60;94.90
47514;DHT22;33951;51.988;5.910;2023-04-05T21:09:15;7.50;95.10
47514;DHT22;33951;51.988;5.910;2023-04-05T21:11:41;7.50;95.40
47514;DHT22;33951;51.988;5.910;2023-04-05T21:14:09;7.50;95.50
47514;DHT22;33951;51.988;5.910;2023-04-05T21:16:34;7.50;95.30
47514;DHT22;33951;51.988;5.910;2023-04-05T21:19:08;7.60;95.20
47514;DHT22;33951;51.988;5.910;2023-04-05T21:21:43;7.50;95.10
47514;DHT22;33951;51.988;5.910;2023-04-05T21:24:14;7.50;95.00
47514;DHT22;33951;51.988;5.910;2023-04-05T21:26:40;7.40;94.80
47514;DHT22;33951;51.988;5.910;2023-04-05T21:29:05;7.40;95.10
47514;DHT22;33951;51.988;5.910;2023-04-05T21:31:31;7.40;95.30
47514;DHT22;33951;51.988;5.910;2023-04-05T21:33:57;7.40;95.40
47514;DHT22;33951;51.988;5.910;2023-04-05T21:36:22;7.30;95.30
47514;DHT22;33951;51.988;5.910;2023-04-05T21:38:48;7.40;95.60
47514;DHT22;33951;51.988;5.910;2023-04-05T21:41:13;7.30;95.70
47514;DHT22;33951;51.988;5.910;2023-04-05T21:43:39;7.20;95.60
47514;DHT22;33951;51.988;5.910;2023-04-05T21:46:05;7.10;96.00
47514;DHT22;33951;51.988;5.910;2023-04-05T21:48:31;7.10;96.10
47514;DHT22;33951;51.988;5.910;2023-04-05T21:50:59;7.00;96.10
47514;DHT22;33951;51.988;5.910;2023-04-05T21:53:27;7.00;96.20
47514;DHT22;33951;51.988;5.910;2023-04-05T21:55:53;7.10;96.20
47514;DHT22;33951;51.988;5.910;2023-04-05T21:58:21;7.00;96.50
47514;DHT22;33951;51.988;5.910;2023-04-05T22:00:47;6.90;96.50
47514;DHT22;33951;51.988;5.910;2023-04-05T22:03:12;6.90;96.30
47514;DHT22;33951;51.988;5.910;2023-04-05T22:05:38;6.80;96.60
47514;DHT22;33951;51.988;5.910;2023-04-05T22:08:04;6.70;96.60
47514;DHT22;33951;51.988;5.910;2023-04-05T22:10:30;6.70;96.90
47514;DHT22;33951;51.988;5.910;2023-04-05T22:12:56;6.70;96.80
47514;DHT22;33951;51.988;5.910;2023-04-05T22:15:24;6.70;96.90
47514;DHT22;33951;51.988;5.910;2023-04-05T22:17:49;6.60;97.00
47514;DHT22;33951;51.988;5.910;2023-04-05T22:20:15;6.60;97.00
47514;DHT22;33951;51.988;5.910;2023-04-05T22:22:40;6.60;97.20
47514;DHT22;33951;51.988;5.910;2023-04-05T22:25:08;6.50;97.20
47514;DHT22;33951;51.988;5.910;2023-04-05T22:27:34;6.50;97.30
47514;DHT22;33951;51.988;5.910;2023-04-05T22:30:00;6.50;97.50
47514;DHT22;33951;51.988;5.910;2023-04-05T22:32:26;6.40;97.80
47514;DHT22;33951;51.988;5.910;2023-04-05T22:34:52;6.40;97.70
47514;DHT22;33951;51.988;5.910;2023-04-05T22:37:20;6.40;98.10
47514;DHT22;33951;51.988;5.910;2023-04-05T22:40:04;6.40;98.30
47514;DHT22;33951;51.988;5.910;2023-04-05T22:45:33;6.30;98.30